< Cyclone 200006 2000 Season Cyclone 200008 >
Cyclone 200007 (NORMAN)
General InformationDetailed Track InformationTrack Information on Google MapsList of All Images || ResourceGoogle EarthGE AnimationAtom FeedGeoJSON
Detalied Best Track Wind (Time Zone = UTC)
Year Month Day Hour Lat. Long. Wind (kt) Gust (kt) Direc. of Major Storm Axis Radius of Major Storm Axis (nm) Radius of Minor Storm Axis (nm) Direc. of Major Gale Axis Radius of Major Gale Axis (nm) Radius of Minor Gale Axis (nm) Image
2000 2 28 22 -17.2 123.0 27 -1 symmetric - - symmetric - - Image
2000 2 29 04 -17.4 122.2 27 -1 symmetric - - symmetric - - Image
2000 2 29 10 -17.7 120.6 35 -1 symmetric - - symmetric - - Image
2000 2 29 16 -18.1 119.0 41 -1 symmetric - - symmetric - - Image
2000 2 29 22 -18.5 117.8 49 -1 symmetric - - symmetric - - Image
2000 3 1 04 -18.5 116.8 54 -1 symmetric - - symmetric - - Image
2000 3 1 10 -18.6 115.8 60 -1 symmetric - - symmetric - - Image
2000 3 1 16 -18.5 114.9 70 -1 symmetric - - symmetric - - Image
2000 3 1 22 -18.6 113.8 76 -1 symmetric - - symmetric - - Image
2000 3 2 04 -18.8 112.8 80 -1 symmetric - - symmetric - - Image
2000 3 2 10 -19.1 111.5 84 -1 symmetric - - symmetric - - Image
2000 3 2 16 -19.4 109.9 93 -1 symmetric - - symmetric - - Image
2000 3 2 22 -19.6 108.2 101 -1 symmetric - - symmetric - - Image
2000 3 3 04 -19.6 106.9 84 -1 symmetric - - symmetric - - Image
2000 3 3 10 -19.9 105.0 70 -1 symmetric - - symmetric - - Image
2000 3 3 16 -19.9 103.0 70 -1 symmetric - - symmetric - - Image
2000 3 3 22 -20.2 101.2 70 -1 symmetric - - symmetric - - Image
2000 3 4 04 -20.3 99.3 60 -1 symmetric - - symmetric - - Image
2000 3 4 10 -20.3 97.8 54 -1 symmetric - - symmetric - - Image
2000 3 4 16 -20.3 96.6 54 -1 symmetric - - symmetric - - Image
2000 3 4 22 -20.2 95.4 54 -1 symmetric - - symmetric - - Image
2000 3 5 04 -20.3 94.6 54 -1 symmetric - - symmetric - - Image
2000 3 5 10 -20.5 93.9 54 -1 symmetric - - symmetric - - Image
2000 3 5 16 -20.5 93.3 54 -1 symmetric - - symmetric - - Image
2000 3 5 22 -20.6 92.8 54 -1 symmetric - - symmetric - - Image
2000 3 6 04 -20.7 92.2 54 -1 symmetric - - symmetric - - Image
2000 3 6 10 -21.2 92.0 54 -1 symmetric - - symmetric - - Image
2000 3 6 16 -21.7 91.9 54 -1 symmetric - - symmetric - - Image
2000 3 6 22 -22.4 91.5 49 -1 symmetric - - symmetric - - Image
2000 3 7 04 -23.0 91.6 49 -1 symmetric - - symmetric - - Image
2000 3 7 10 -23.6 91.8 49 -1 symmetric - - symmetric - - Image
2000 3 7 16 -23.7 92.0 41 -1 symmetric - - symmetric - - Image
2000 3 7 22 -23.8 92.2 35 -1 symmetric - - symmetric - - Image
2000 3 8 04 -23.9 92.5 35 -1 symmetric - - symmetric - - Image
2000 3 8 10 -23.8 92.8 35 -1 symmetric - - symmetric - - Image
2000 3 8 16 -23.7 92.6 27 -1 symmetric - - symmetric - - Image
2000 3 8 22 -23.6 92.3 27 -1 symmetric - - symmetric - - Image
2000 3 9 04 -23.6 91.9 27 -1 symmetric - - symmetric - - Image
2000 3 9 10 -23.4 90.5 27 -1 symmetric - - symmetric - - Image
2000 3 9 16 -23.1 89.8 27 -1 symmetric - - symmetric - - Image
2000 3 9 22 -22.9 88.2 19 -1 symmetric - - symmetric - - Image
2000 3 10 04 -22.7 87.8 19 -1 symmetric - - symmetric - - Image
< Cyclone 200006 2000 Season Cyclone 200008 >

Help